21:41
Airports
History
Links
Donate
Help keep this website running!
PayPal
Bitcoin
This page is community maintained. The information is intended for PC simulator navigation or reference.
Always use approved charts for navigation.
TGPY
Grenada/Bishop International
Grenada/Bishop International (TGPY)
True Blue, Saint George, Grenada
(C)
Lat/Lng:12° 0' 15.29" N / 61° 47' 10.29" W
12.004248 / -61.786192
Elevation:41'ft / 12mMSL
ID / ICAO:TGPY
Runways:1
Longest:(10-28) 2,752.0m / 9,029ft Asphalt
Controlled:Yes
Distance To
Airport ID:
Airport Radio Frequencies
Ground: 121.9
Tower: 118.9
Approach: 119.4
Nearby VORs <50NM
Nearby NDBs
METARUpdated 08-16-17 21:00 GMT
Altimeter: 29.83
Visibility: 6.2 statute miles
Wind: 16 knots (100°)
Temp: 30°c 86°f
Humidity: 79.2%

METAR: TGPY 162100Z 10016KT 9999 SCT018 30/26 Q1010 NOSIG JP- E ESE SE+S

(Powered by phpweather)
Runway 10 / 28
Dimensions:2752 x 45.1m 9029' x 148'ft
Surface:Asphalt
Edge Lights:High intensity
Runway 10 [A]Runway 28 [B]
Heading:090°TH 270°TH
Lat:
Lng:
12° 0' 15.49"N
61° 47' 55.74"W
12° 0' 15.09"N
61° 46' 24.85"W
User Notes and Comments
Google Map
Nearby Airports
(U) Carriacou/Lauristo 38.9 NM
TGPZ NNE 32°
(C) Union Island Intl 48.1 NM
TVSU NNE 31°
(C) Canouan Jetport 56.6 NM
TVSC NNE 31°
(C) Mustique 73.5 NM
TVSM NNE 33°
(C) Bequia/J F Mitchell 76.6 NM
TVSB NNE 27°
(C) Tobago/Crown Point Intl 87.5 NM
TTCP (WX) SE 132°
(C) St. Vincent/E T Joshua 87.8 NM
TVSV (WX) NNE 26°
VFR Chart
Flight Planning at SkyVector.com